หน้าหลัก
METAR-TAF:

METAR-TAF

ท่าอากาศยาน :

Fort Richardson, อะแลสกา, สหรัฐอเมริกา

ละติจูด: 61-15-45N, ลองจิจูด: 149-39-17W, ความสูง: 115 ม.

การสังเกตสภาพอากาศปัจจุบัน

รายงานได้ทำขึ้นเมื่อ 1 ชั่วโมงและ 1 นาทีที่แล้ว ณ เวลา 22:55 UTC
ลม 5 นอตจากตะวันตกเฉียงเหนือ
อุณหภูมิ 10°C
ความชื้น 66%
ความกดอากาศ 1005 hPa
ทัศนวิสัย: 16.1 กม.
มีเมฆน้อยที่ความสูง 2900 ฟุต
มีเมฆมาก มืดครึ้มที่ความสูง 5000 ฟุต

METAR: PAFR 242255Z AUTO 31005KT 10SM FEW029 OVC050 10/04 A2968 RMK AO2 SLP058 T01020037 $

เวลา: 15:56 (23:56 UTC)


TAF: หายไป

สังเกตการณ์สภาพอากาศและพยากรณ์อากาศของสนามบินมากกว่า 4000 แห่ง (รายงาน METAR และ TAF).

สถานีที่ดูได้จะแสดงไว้ด้วยจุดสีเหลืองและสีแดงบนแผนที่.

เลื่อนเมาส์ไปเหนือจุดเพื่อดูชื่อสถานี.

แล้วคลิกเพื่อดูสังเกตการณ์และการพยากรณ์สภาพอากาศ.

ในการเปลี่ยนแผนที่: คลิกที่ปุ่มสีเขียวที่มีกากบาทสีดำเพื่อซูมเข้า; ที่ปุ่มสีเขียวที่มีขีดเพื่อซูมออก; หรือที่ลูกศรสีเขียวเพื่อไปยังแผนที่ที่อยู่ติดกัน.


METAR-TAF: